sensor_id;sensor_type;location;lat;lon;timestamp;P1;durP1;ratioP1;P2;durP2;ratioP2
54823;SDS011;40724;53.196;5.980;2023-06-22T00:00:51;11.15;;;7.95;;
54823;SDS011;40724;53.196;5.980;2023-06-22T00:03:17;11.50;;;7.85;;
54823;SDS011;40724;53.196;5.980;2023-06-22T00:05:44;11.32;;;8.38;;
54823;SDS011;40724;53.196;5.980;2023-06-22T00:08:10;10.30;;;7.85;;
54823;SDS011;40724;53.196;5.980;2023-06-22T00:10:37;14.05;;;8.15;;
54823;SDS011;40724;53.196;5.980;2023-06-22T00:13:03;10.23;;;7.70;;
54823;SDS011;40724;53.196;5.980;2023-06-22T00:15:29;12.80;;;8.90;;
54823;SDS011;40724;53.196;5.980;2023-06-22T00:17:55;9.25;;;7.63;;
54823;SDS011;40724;53.196;5.980;2023-06-22T00:20:22;11.00;;;7.75;;
54823;SDS011;40724;53.196;5.980;2023-06-22T00:22:53;9.77;;;7.15;;
54823;SDS011;40724;53.196;5.980;2023-06-22T00:25:19;11.38;;;7.30;;
54823;SDS011;40724;53.196;5.980;2023-06-22T00:27:45;9.10;;;7.47;;
54823;SDS011;40724;53.196;5.980;2023-06-22T00:30:12;13.88;;;8.70;;
54823;SDS011;40724;53.196;5.980;2023-06-22T00:32:38;12.02;;;8.50;;
54823;SDS011;40724;53.196;5.980;2023-06-22T00:35:04;13.98;;;9.05;;
54823;SDS011;40724;53.196;5.980;2023-06-22T00:37:30;9.43;;;7.95;;
54823;SDS011;40724;53.196;5.980;2023-06-22T00:39:56;10.55;;;7.50;;
54823;SDS011;40724;53.196;5.980;2023-06-22T00:42:23;16.95;;;9.38;;
54823;SDS011;40724;53.196;5.980;2023-06-22T00:44:49;12.85;;;9.13;;
54823;SDS011;40724;53.196;5.980;2023-06-22T00:47:15;12.40;;;8.85;;
54823;SDS011;40724;53.196;5.980;2023-06-22T00:49:43;11.63;;;9.77;;
54823;SDS011;40724;53.196;5.980;2023-06-22T00:52:10;11.40;;;8.82;;
54823;SDS011;40724;53.196;5.980;2023-06-22T00:54:45;12.57;;;9.25;;
54823;SDS011;40724;53.196;5.980;2023-06-22T00:57:14;11.02;;;9.32;;
54823;SDS011;40724;53.196;5.980;2023-06-22T00:59:44;11.50;;;8.50;;
54823;SDS011;40724;53.196;5.980;2023-06-22T01:02:10;11.55;;;8.98;;
54823;SDS011;40724;53.196;5.980;2023-06-22T01:04:37;11.10;;;9.02;;
54823;SDS011;40724;53.196;5.980;2023-06-22T01:10:05;14.50;;;9.93;;
54823;SDS011;40724;53.196;5.980;2023-06-22T01:12:38;11.40;;;8.70;;
54823;SDS011;40724;53.196;5.980;2023-06-22T01:15:10;13.73;;;9.68;;
54823;SDS011;40724;53.196;5.980;2023-06-22T01:17:40;13.13;;;10.32;;
54823;SDS011;40724;53.196;5.980;2023-06-22T01:20:09;12.05;;;10.07;;
54823;SDS011;40724;53.196;5.980;2023-06-22T01:22:50;14.15;;;10.00;;
54823;SDS011;40724;53.196;5.980;2023-06-22T01:28:05;13.23;;;9.77;;
54823;SDS011;40724;53.196;5.980;2023-06-22T01:30:51;13.43;;;11.45;;
54823;SDS011;40724;53.196;5.980;2023-06-22T01:33:28;15.95;;;10.20;;
54823;SDS011;40724;53.196;5.980;2023-06-22T01:35:56;13.93;;;9.95;;
54823;SDS011;40724;53.196;5.980;2023-06-22T01:38:22;12.00;;;10.73;;
54823;SDS011;40724;53.196;5.980;2023-06-22T01:40:49;16.13;;;10.40;;
54823;SDS011;40724;53.196;5.980;2023-06-22T01:43:16;14.35;;;11.38;;
54823;SDS011;40724;53.196;5.980;2023-06-22T01:45:42;13.38;;;11.48;;
54823;SDS011;40724;53.196;5.980;2023-06-22T01:48:08;12.90;;;10.30;;
54823;SDS011;40724;53.196;5.980;2023-06-22T01:50:33;14.40;;;11.05;;
54823;SDS011;40724;53.196;5.980;2023-06-22T01:52:59;13.07;;;11.00;;
54823;SDS011;40724;53.196;5.980;2023-06-22T01:55:25;16.30;;;11.27;;
54823;SDS011;40724;53.196;5.980;2023-06-22T01:57:51;15.27;;;11.18;;
54823;SDS011;40724;53.196;5.980;2023-06-22T02:00:18;17.75;;;11.05;;
54823;SDS011;40724;53.196;5.980;2023-06-22T02:05:15;15.40;;;11.75;;
54823;SDS011;40724;53.196;5.980;2023-06-22T02:07:47;13.88;;;11.07;;
54823;SDS011;40724;53.196;5.980;2023-06-22T02:10:15;14.25;;;11.32;;
54823;SDS011;40724;53.196;5.980;2023-06-22T02:12:43;19.65;;;11.52;;
54823;SDS011;40724;53.196;5.980;2023-06-22T02:15:10;12.52;;;10.90;;
54823;SDS011;40724;53.196;5.980;2023-06-22T02:17:37;13.77;;;10.90;;
54823;SDS011;40724;53.196;5.980;2023-06-22T02:20:04;14.73;;;11.27;;
54823;SDS011;40724;53.196;5.980;2023-06-22T02:22:32;14.43;;;11.43;;
54823;SDS011;40724;53.196;5.980;2023-06-22T02:24:58;15.73;;;11.55;;
54823;SDS011;40724;53.196;5.980;2023-06-22T02:27:25;11.70;;;10.30;;
54823;SDS011;40724;53.196;5.980;2023-06-22T02:29:51;13.45;;;10.75;;
54823;SDS011;40724;53.196;5.980;2023-06-22T02:32:17;15.02;;;11.00;;
54823;SDS011;40724;53.196;5.980;2023-06-22T02:34:43;12.65;;;10.40;;
54823;SDS011;40724;53.196;5.980;2023-06-22T02:37:12;10.50;;;9.07;;
54823;SDS011;40724;53.196;5.980;2023-06-22T02:39:42;12.88;;;10.77;;
54823;SDS011;40724;53.196;5.980;2023-06-22T02:42:08;14.25;;;11.13;;
54823;SDS011;40724;53.196;5.980;2023-06-22T02:44:37;12.70;;;10.13;;
54823;SDS011;40724;53.196;5.980;2023-06-22T02:47:04;11.45;;;9.65;;
54823;SDS011;40724;53.196;5.980;2023-06-22T02:49:30;12.02;;;10.70;;
54823;SDS011;40724;53.196;5.980;2023-06-22T02:51:57;11.63;;;10.05;;
54823;SDS011;40724;53.196;5.980;2023-06-22T02:54:23;11.90;;;10.70;;
54823;SDS011;40724;53.196;5.980;2023-06-22T02:56:49;12.50;;;9.50;;
54823;SDS011;40724;53.196;5.980;2023-06-22T02:59:16;20.27;;;11.25;;
54823;SDS011;40724;53.196;5.980;2023-06-22T03:01:42;14.00;;;9.88;;
54823;SDS011;40724;53.196;5.980;2023-06-22T03:04:08;13.50;;;9.75;;
54823;SDS011;40724;53.196;5.980;2023-06-22T03:06:35;11.75;;;10.32;;
54823;SDS011;40724;53.196;5.980;2023-06-22T03:09:02;11.80;;;9.02;;
54823;SDS011;40724;53.196;5.980;2023-06-22T03:11:30;12.30;;;10.32;;
54823;SDS011;40724;53.196;5.980;2023-06-22T03:13:56;11.70;;;9.75;;
54823;SDS011;40724;53.196;5.980;2023-06-22T03:16:22;13.43;;;9.65;;
54823;SDS011;40724;53.196;5.980;2023-06-22T03:18:48;13.05;;;10.65;;
54823;SDS011;40724;53.196;5.980;2023-06-22T03:21:14;11.02;;;8.85;;
54823;SDS011;40724;53.196;5.980;2023-06-22T03:23:40;10.63;;;8.95;;
54823;SDS011;40724;53.196;5.980;2023-06-22T03:26:07;9.32;;;8.40;;
54823;SDS011;40724;53.196;5.980;2023-06-22T03:28:34;9.52;;;8.55;;
54823;SDS011;40724;53.196;5.980;2023-06-22T03:31:00;8.77;;;7.35;;
54823;SDS011;40724;53.196;5.980;2023-06-22T03:33:26;10.27;;;8.18;;
54823;SDS011;40724;53.196;5.980;2023-06-22T03:35:52;9.35;;;7.60;;
54823;SDS011;40724;53.196;5.980;2023-06-22T03:38:18;8.95;;;8.13;;
54823;SDS011;40724;53.196;5.980;2023-06-22T03:40:45;7.88;;;7.18;;
54823;SDS011;40724;53.196;5.980;2023-06-22T03:43:11;9.68;;;7.93;;
54823;SDS011;40724;53.196;5.980;2023-06-22T03:45:37;8.95;;;8.00;;
54823;SDS011;40724;53.196;5.980;2023-06-22T03:48:05;8.38;;;7.57;;
54823;SDS011;40724;53.196;5.980;2023-06-22T03:50:31;8.48;;;7.55;;
54823;SDS011;40724;53.196;5.980;2023-06-22T03:52:57;9.48;;;7.50;;
54823;SDS011;40724;53.196;5.980;2023-06-22T03:55:24;7.78;;;7.05;;
54823;SDS011;40724;53.196;5.980;2023-06-22T03:57:50;8.25;;;7.43;;
54823;SDS011;40724;53.196;5.980;2023-06-22T04:00:16;7.25;;;6.40;;
54823;SDS011;40724;53.196;5.980;2023-06-22T04:02:42;9.57;;;7.07;;
54823;SDS011;40724;53.196;5.980;2023-06-22T04:05:08;7.97;;;7.10;;
54823;SDS011;40724;53.196;5.980;2023-06-22T04:07:35;8.27;;;6.47;;
54823;SDS011;40724;53.196;5.980;2023-06-22T04:10:04;7.15;;;6.45;;
54823;SDS011;40724;53.196;5.980;2023-06-22T04:12:31;7.57;;;6.88;;
54823;SDS011;40724;53.196;5.980;2023-06-22T04:14:57;7.72;;;6.93;;
54823;SDS011;40724;53.196;5.980;2023-06-22T04:17:23;7.97;;;7.18;;
54823;SDS011;40724;53.196;5.980;2023-06-22T04:19:50;6.95;;;6.25;;
54823;SDS011;40724;53.196;5.980;2023-06-22T04:22:16;8.30;;;7.50;;
54823;SDS011;40724;53.196;5.980;2023-06-22T04:24:43;8.50;;;7.60;;
54823;SDS011;40724;53.196;5.980;2023-06-22T04:27:10;8.98;;;8.05;;
54823;SDS011;40724;53.196;5.980;2023-06-22T04:29:36;8.50;;;7.25;;
54823;SDS011;40724;53.196;5.980;2023-06-22T04:32:03;8.77;;;7.88;;
54823;SDS011;40724;53.196;5.980;2023-06-22T04:34:30;9.98;;;7.65;;
54823;SDS011;40724;53.196;5.980;2023-06-22T04:36:56;18.58;;;9.10;;
54823;SDS011;40724;53.196;5.980;2023-06-22T04:39:23;9.52;;;8.52;;
54823;SDS011;40724;53.196;5.980;2023-06-22T04:41:49;11.70;;;8.90;;
54823;SDS011;40724;53.196;5.980;2023-06-22T04:44:19;9.27;;;8.10;;
54823;SDS011;40724;53.196;5.980;2023-06-22T04:46:56;10.57;;;7.57;;
54823;SDS011;40724;53.196;5.980;2023-06-22T04:49:27;11.25;;;9.25;;
54823;SDS011;40724;53.196;5.980;2023-06-22T04:52:07;9.77;;;8.77;;
54823;SDS011;40724;53.196;5.980;2023-06-22T04:54:34;10.57;;;9.25;;
54823;SDS011;40724;53.196;5.980;2023-06-22T04:57:05;7.47;;;6.70;;
54823;SDS011;40724;53.196;5.980;2023-06-22T04:59:35;10.07;;;8.05;;
54823;SDS011;40724;53.196;5.980;2023-06-22T05:02:01;11.13;;;8.63;;
54823;SDS011;40724;53.196;5.980;2023-06-22T05:04:28;10.27;;;8.45;;
54823;SDS011;40724;53.196;5.980;2023-06-22T05:06:58;11.18;;;9.20;;
54823;SDS011;40724;53.196;5.980;2023-06-22T05:09:25;12.73;;;9.02;;
54823;SDS011;40724;53.196;5.980;2023-06-22T05:11:51;11.65;;;9.05;;
54823;SDS011;40724;53.196;5.980;2023-06-22T05:14:18;9.60;;;7.72;;
54823;SDS011;40724;53.196;5.980;2023-06-22T05:16:44;11.27;;;8.48;;
54823;SDS011;40724;53.196;5.980;2023-06-22T05:19:11;9.95;;;8.13;;
54823;SDS011;40724;53.196;5.980;2023-06-22T05:21:37;9.82;;;7.57;;
54823;SDS011;40724;53.196;5.980;2023-06-22T05:24:04;10.93;;;7.68;;
54823;SDS011;40724;53.196;5.980;2023-06-22T05:26:30;9.73;;;7.55;;
54823;SDS011;40724;53.196;5.980;2023-06-22T05:28:57;13.63;;;9.38;;
54823;SDS011;40724;53.196;5.980;2023-06-22T05:31:23;12.10;;;9.07;;
54823;SDS011;40724;53.196;5.980;2023-06-22T05:33:51;10.45;;;7.57;;
54823;SDS011;40724;53.196;5.980;2023-06-22T05:36:17;9.93;;;8.32;;
54823;SDS011;40724;53.196;5.980;2023-06-22T05:38:45;8.45;;;7.30;;
54823;SDS011;40724;53.196;5.980;2023-06-22T05:41:11;9.38;;;8.00;;
54823;SDS011;40724;53.196;5.980;2023-06-22T05:43:37;8.05;;;7.18;;
54823;SDS011;40724;53.196;5.980;2023-06-22T05:46:04;9.38;;;7.30;;
54823;SDS011;40724;53.196;5.980;2023-06-22T05:48:30;12.00;;;8.02;;
54823;SDS011;40724;53.196;5.980;2023-06-22T05:50:56;9.80;;;8.82;;
54823;SDS011;40724;53.196;5.980;2023-06-22T05:53:23;10.40;;;7.88;;
54823;SDS011;40724;53.196;5.980;2023-06-22T05:55:49;10.88;;;8.52;;
54823;SDS011;40724;53.196;5.980;2023-06-22T05:58:15;12.60;;;8.57;;
54823;SDS011;40724;53.196;5.980;2023-06-22T06:00:41;10.43;;;8.52;;
54823;SDS011;40724;53.196;5.980;2023-06-22T06:03:08;12.40;;;8.50;;
54823;SDS011;40724;53.196;5.980;2023-06-22T06:05:35;10.63;;;7.70;;
54823;SDS011;40724;53.196;5.980;2023-06-22T06:08:01;9.38;;;7.70;;
54823;SDS011;40724;53.196;5.980;2023-06-22T06:10:30;9.93;;;7.68;;
54823;SDS011;40724;53.196;5.980;2023-06-22T06:12:56;12.27;;;7.97;;
54823;SDS011;40724;53.196;5.980;2023-06-22T06:15:22;11.10;;;7.07;;
54823;SDS011;40724;53.196;5.980;2023-06-22T06:17:49;9.88;;;6.85;;
54823;SDS011;40724;53.196;5.980;2023-06-22T06:20:17;11.48;;;8.40;;
54823;SDS011;40724;53.196;5.980;2023-06-22T06:22:44;9.90;;;7.60;;
54823;SDS011;40724;53.196;5.980;2023-06-22T06:25:10;10.73;;;7.75;;
54823;SDS011;40724;53.196;5.980;2023-06-22T06:27:41;9.73;;;7.45;;
54823;SDS011;40724;53.196;5.980;2023-06-22T06:30:08;10.82;;;8.45;;
54823;SDS011;40724;53.196;5.980;2023-06-22T06:32:34;10.82;;;8.00;;
54823;SDS011;40724;53.196;5.980;2023-06-22T06:35:00;11.35;;;8.13;;
54823;SDS011;40724;53.196;5.980;2023-06-22T06:37:26;9.38;;;8.13;;
54823;SDS011;40724;53.196;5.980;2023-06-22T06:39:53;11.35;;;6.88;;
54823;SDS011;40724;53.196;5.980;2023-06-22T06:42:19;9.65;;;7.15;;
54823;SDS011;40724;53.196;5.980;2023-06-22T06:44:45;8.30;;;7.32;;
54823;SDS011;40724;53.196;5.980;2023-06-22T06:47:11;12.95;;;8.07;;
54823;SDS011;40724;53.196;5.980;2023-06-22T06:49:38;12.32;;;8.43;;
54823;SDS011;40724;53.196;5.980;2023-06-22T06:52:04;11.70;;;7.30;;
54823;SDS011;40724;53.196;5.980;2023-06-22T06:54:30;12.20;;;8.18;;
54823;SDS011;40724;53.196;5.980;2023-06-22T06:56:56;10.68;;;7.43;;
54823;SDS011;40724;53.196;5.980;2023-06-22T06:59:22;9.98;;;7.35;;
54823;SDS011;40724;53.196;5.980;2023-06-22T07:01:48;9.40;;;6.60;;
54823;SDS011;40724;53.196;5.980;2023-06-22T07:04:14;10.07;;;6.30;;
54823;SDS011;40724;53.196;5.980;2023-06-22T07:06:41;10.50;;;6.72;;
54823;SDS011;40724;53.196;5.980;2023-06-22T07:09:08;9.73;;;6.78;;
54823;SDS011;40724;53.196;5.980;2023-06-22T07:11:34;10.73;;;7.15;;
54823;SDS011;40724;53.196;5.980;2023-06-22T07:14:01;8.63;;;7.10;;
54823;SDS011;40724;53.196;5.980;2023-06-22T07:16:27;8.10;;;6.43;;
54823;SDS011;40724;53.196;5.980;2023-06-22T07:18:55;10.25;;;7.30;;
54823;SDS011;40724;53.196;5.980;2023-06-22T07:21:21;10.88;;;7.75;;
54823;SDS011;40724;53.196;5.980;2023-06-22T07:23:47;10.75;;;8.57;;
54823;SDS011;40724;53.196;5.980;2023-06-22T07:26:13;9.25;;;6.45;;
54823;SDS011;40724;53.196;5.980;2023-06-22T07:28:41;8.13;;;6.75;;
54823;SDS011;40724;53.196;5.980;2023-06-22T07:31:07;10.25;;;7.80;;
54823;SDS011;40724;53.196;5.980;2023-06-22T07:33:33;12.13;;;7.97;;
54823;SDS011;40724;53.196;5.980;2023-06-22T07:35:59;10.90;;;8.02;;
54823;SDS011;40724;53.196;5.980;2023-06-22T07:38:25;11.32;;;7.85;;
54823;SDS011;40724;53.196;5.980;2023-06-22T07:40:50;12.00;;;7.43;;
54823;SDS011;40724;53.196;5.980;2023-06-22T07:43:18;8.48;;;6.53;;
54823;SDS011;40724;53.196;5.980;2023-06-22T07:45:50;8.38;;;6.38;;
54823;SDS011;40724;53.196;5.980;2023-06-22T07:48:22;8.38;;;6.35;;
54823;SDS011;40724;53.196;5.980;2023-06-22T07:50:48;12.25;;;7.03;;
54823;SDS011;40724;53.196;5.980;2023-06-22T07:53:15;7.88;;;6.03;;
54823;SDS011;40724;53.196;5.980;2023-06-22T07:55:41;8.43;;;6.30;;
54823;SDS011;40724;53.196;5.980;2023-06-22T07:58:07;11.25;;;5.88;;
54823;SDS011;40724;53.196;5.980;2023-06-22T08:00:33;8.90;;;5.30;;
54823;SDS011;40724;53.196;5.980;2023-06-22T08:02:59;7.57;;;5.35;;
54823;SDS011;40724;53.196;5.980;2023-06-22T08:05:28;7.53;;;5.90;;
54823;SDS011;40724;53.196;5.980;2023-06-22T08:07:55;6.78;;;4.70;;
54823;SDS011;40724;53.196;5.980;2023-06-22T08:10:21;8.55;;;5.03;;
54823;SDS011;40724;53.196;5.980;2023-06-22T08:12:47;6.78;;;4.75;;
54823;SDS011;40724;53.196;5.980;2023-06-22T08:15:13;6.85;;;5.03;;
54823;SDS011;40724;53.196;5.980;2023-06-22T08:17:40;6.38;;;4.70;;
54823;SDS011;40724;53.196;5.980;2023-06-22T08:20:06;6.75;;;4.82;;
54823;SDS011;40724;53.196;5.980;2023-06-22T08:22:39;8.45;;;5.10;;
54823;SDS011;40724;53.196;5.980;2023-06-22T08:25:05;6.28;;;5.30;;
54823;SDS011;40724;53.196;5.980;2023-06-22T08:27:32;11.07;;;5.72;;
54823;SDS011;40724;53.196;5.980;2023-06-22T08:29:58;6.45;;;4.68;;
54823;SDS011;40724;53.196;5.980;2023-06-22T08:32:25;8.88;;;5.13;;
54823;SDS011;40724;53.196;5.980;2023-06-22T08:34:55;6.18;;;4.82;;
54823;SDS011;40724;53.196;5.980;2023-06-22T08:37:21;7.57;;;5.43;;
54823;SDS011;40724;53.196;5.980;2023-06-22T08:39:59;6.40;;;4.80;;
54823;SDS011;40724;53.196;5.980;2023-06-22T08:42:26;7.25;;;4.93;;
54823;SDS011;40724;53.196;5.980;2023-06-22T08:44:52;6.00;;;4.65;;
54823;SDS011;40724;53.196;5.980;2023-06-22T08:47:19;7.05;;;4.15;;
54823;SDS011;40724;53.196;5.980;2023-06-22T08:49:46;6.53;;;4.43;;
54823;SDS011;40724;53.196;5.980;2023-06-22T08:52:12;6.18;;;4.25;;
54823;SDS011;40724;53.196;5.980;2023-06-22T08:54:38;6.00;;;4.10;;
54823;SDS011;40724;53.196;5.980;2023-06-22T08:57:05;8.15;;;4.28;;
54823;SDS011;40724;53.196;5.980;2023-06-22T08:59:31;7.03;;;5.03;;
54823;SDS011;40724;53.196;5.980;2023-06-22T09:01:57;6.18;;;4.40;;
54823;SDS011;40724;53.196;5.980;2023-06-22T09:04:24;5.75;;;4.47;;
54823;SDS011;40724;53.196;5.980;2023-06-22T09:06:50;5.78;;;3.72;;
54823;SDS011;40724;53.196;5.980;2023-06-22T09:09:17;6.10;;;4.65;;
54823;SDS011;40724;53.196;5.980;2023-06-22T09:11:44;5.47;;;3.95;;
54823;SDS011;40724;53.196;5.980;2023-06-22T09:14:10;6.68;;;3.90;;
54823;SDS011;40724;53.196;5.980;2023-06-22T09:16:37;7.80;;;4.18;;
54823;SDS011;40724;53.196;5.980;2023-06-22T09:19:03;5.60;;;3.95;;
54823;SDS011;40724;53.196;5.980;2023-06-22T09:21:29;5.72;;;4.05;;
54823;SDS011;40724;53.196;5.980;2023-06-22T09:23:56;5.53;;;3.83;;
54823;SDS011;40724;53.196;5.980;2023-06-22T09:26:22;8.48;;;4.07;;
54823;SDS011;40724;53.196;5.980;2023-06-22T09:28:49;6.82;;;4.07;;
54823;SDS011;40724;53.196;5.980;2023-06-22T09:31:15;5.75;;;3.75;;
54823;SDS011;40724;53.196;5.980;2023-06-22T09:33:41;5.57;;;3.45;;
54823;SDS011;40724;53.196;5.980;2023-06-22T09:36:07;4.38;;;3.42;;
54823;SDS011;40724;53.196;5.980;2023-06-22T09:38:34;7.43;;;3.72;;
54823;SDS011;40724;53.196;5.980;2023-06-22T09:41:01;6.75;;;4.20;;
54823;SDS011;40724;53.196;5.980;2023-06-22T09:43:27;6.00;;;3.42;;
54823;SDS011;40724;53.196;5.980;2023-06-22T09:45:53;4.70;;;2.90;;
54823;SDS011;40724;53.196;5.980;2023-06-22T09:48:19;4.22;;;3.42;;
54823;SDS011;40724;53.196;5.980;2023-06-22T09:50:45;6.03;;;4.15;;
54823;SDS011;40724;53.196;5.980;2023-06-22T09:53:12;4.65;;;3.60;;
54823;SDS011;40724;53.196;5.980;2023-06-22T09:55:38;4.60;;;3.85;;
54823;SDS011;40724;53.196;5.980;2023-06-22T09:58:04;4.95;;;3.70;;
54823;SDS011;40724;53.196;5.980;2023-06-22T10:00:30;8.07;;;4.20;;
54823;SDS011;40724;53.196;5.980;2023-06-22T10:02:56;4.03;;;2.88;;
54823;SDS011;40724;53.196;5.980;2023-06-22T10:05:23;3.55;;;2.50;;
54823;SDS011;40724;53.196;5.980;2023-06-22T10:07:50;3.70;;;2.83;;
54823;SDS011;40724;53.196;5.980;2023-06-22T10:10:16;3.50;;;2.80;;
54823;SDS011;40724;53.196;5.980;2023-06-22T10:12:45;3.95;;;2.83;;
54823;SDS011;40724;53.196;5.980;2023-06-22T10:15:11;5.32;;;2.78;;
54823;SDS011;40724;53.196;5.980;2023-06-22T10:17:37;3.90;;;2.97;;
54823;SDS011;40724;53.196;5.980;2023-06-22T10:20:04;4.13;;;3.20;;
54823;SDS011;40724;53.196;5.980;2023-06-22T10:22:37;4.63;;;2.83;;
54823;SDS011;40724;53.196;5.980;2023-06-22T10:25:04;5.22;;;2.90;;
54823;SDS011;40724;53.196;5.980;2023-06-22T10:27:30;5.88;;;2.78;;
54823;SDS011;40724;53.196;5.980;2023-06-22T10:29:56;5.03;;;3.05;;
54823;SDS011;40724;53.196;5.980;2023-06-22T10:32:22;5.47;;;3.00;;
54823;SDS011;40724;53.196;5.980;2023-06-22T10:34:48;4.43;;;2.80;;
54823;SDS011;40724;53.196;5.980;2023-06-22T10:37:14;3.80;;;3.03;;
54823;SDS011;40724;53.196;5.980;2023-06-22T10:39:39;3.55;;;2.78;;
54823;SDS011;40724;53.196;5.980;2023-06-22T10:42:05;3.65;;;2.63;;
54823;SDS011;40724;53.196;5.980;2023-06-22T10:44:31;4.88;;;2.78;;
54823;SDS011;40724;53.196;5.980;2023-06-22T10:46:57;3.45;;;2.40;;
54823;SDS011;40724;53.196;5.980;2023-06-22T10:49:22;4.18;;;2.55;;
54823;SDS011;40724;53.196;5.980;2023-06-22T10:51:48;3.60;;;2.60;;
54823;SDS011;40724;53.196;5.980;2023-06-22T10:54:14;3.80;;;2.67;;
54823;SDS011;40724;53.196;5.980;2023-06-22T10:56:43;2.83;;;2.10;;
54823;SDS011;40724;53.196;5.980;2023-06-22T10:59:09;3.25;;;2.65;;
54823;SDS011;40724;53.196;5.980;2023-06-22T11:01:35;7.00;;;3.20;;
54823;SDS011;40724;53.196;5.980;2023-06-22T11:04:02;3.05;;;2.20;;
54823;SDS011;40724;53.196;5.980;2023-06-22T11:06:28;4.40;;;2.63;;
54823;SDS011;40724;53.196;5.980;2023-06-22T11:08:53;3.05;;;2.50;;
54823;SDS011;40724;53.196;5.980;2023-06-22T11:11:19;4.32;;;2.83;;
54823;SDS011;40724;53.196;5.980;2023-06-22T11:13:45;4.93;;;2.28;;
54823;SDS011;40724;53.196;5.980;2023-06-22T11:16:11;3.70;;;3.03;;
54823;SDS011;40724;53.196;5.980;2023-06-22T11:18:36;3.30;;;2.15;;
54823;SDS011;40724;53.196;5.980;2023-06-22T11:21:02;4.60;;;3.13;;
54823;SDS011;40724;53.196;5.980;2023-06-22T11:23:28;4.35;;;3.03;;
54823;SDS011;40724;53.196;5.980;2023-06-22T11:25:54;3.65;;;2.60;;
54823;SDS011;40724;53.196;5.980;2023-06-22T11:28:20;5.63;;;2.83;;
54823;SDS011;40724;53.196;5.980;2023-06-22T11:30:46;3.80;;;2.90;;
54823;SDS011;40724;53.196;5.980;2023-06-22T11:33:12;3.22;;;2.33;;
54823;SDS011;40724;53.196;5.980;2023-06-22T11:35:37;3.38;;;2.60;;
54823;SDS011;40724;53.196;5.980;2023-06-22T11:38:03;4.80;;;2.80;;
54823;SDS011;40724;53.196;5.980;2023-06-22T11:40:30;4.75;;;3.00;;
54823;SDS011;40724;53.196;5.980;2023-06-22T11:42:56;4.90;;;2.47;;
54823;SDS011;40724;53.196;5.980;2023-06-22T11:45:21;3.33;;;2.42;;
54823;SDS011;40724;53.196;5.980;2023-06-22T11:47:47;7.10;;;2.55;;
54823;SDS011;40724;53.196;5.980;2023-06-22T11:50:13;4.78;;;3.03;;
54823;SDS011;40724;53.196;5.980;2023-06-22T11:52:39;4.30;;;2.70;;
54823;SDS011;40724;53.196;5.980;2023-06-22T11:55:05;3.83;;;2.55;;
54823;SDS011;40724;53.196;5.980;2023-06-22T11:57:33;3.45;;;2.50;;
54823;SDS011;40724;53.196;5.980;2023-06-22T12:00:00;3.85;;;2.55;;
54823;SDS011;40724;53.196;5.980;2023-06-22T12:02:31;3.72;;;2.55;;
54823;SDS011;40724;53.196;5.980;2023-06-22T12:04:57;6.00;;;2.75;;
54823;SDS011;40724;53.196;5.980;2023-06-22T12:07:23;4.40;;;2.72;;
54823;SDS011;40724;53.196;5.980;2023-06-22T12:09:49;4.28;;;2.40;;
54823;SDS011;40724;53.196;5.980;2023-06-22T12:12:15;4.07;;;2.75;;
54823;SDS011;40724;53.196;5.980;2023-06-22T12:14:40;4.20;;;2.97;;
54823;SDS011;40724;53.196;5.980;2023-06-22T12:17:06;3.65;;;2.47;;
54823;SDS011;40724;53.196;5.980;2023-06-22T12:19:32;2.95;;;2.30;;
54823;SDS011;40724;53.196;5.980;2023-06-22T12:21:58;4.53;;;3.00;;
54823;SDS011;40724;53.196;5.980;2023-06-22T12:24:23;3.13;;;2.55;;
54823;SDS011;40724;53.196;5.980;2023-06-22T12:26:49;5.25;;;2.40;;
54823;SDS011;40724;53.196;5.980;2023-06-22T12:29:15;4.63;;;2.63;;
54823;SDS011;40724;53.196;5.980;2023-06-22T12:31:41;2.58;;;2.03;;
54823;SDS011;40724;53.196;5.980;2023-06-22T12:34:06;3.13;;;2.20;;
54823;SDS011;40724;53.196;5.980;2023-06-22T12:36:32;3.97;;;2.08;;
54823;SDS011;40724;53.196;5.980;2023-06-22T12:38:58;2.70;;;2.03;;
54823;SDS011;40724;53.196;5.980;2023-06-22T12:41:24;3.28;;;2.70;;
54823;SDS011;40724;53.196;5.980;2023-06-22T12:43:49;3.85;;;2.50;;
54823;SDS011;40724;53.196;5.980;2023-06-22T12:46:15;2.20;;;1.65;;
54823;SDS011;40724;53.196;5.980;2023-06-22T12:48:41;7.53;;;2.22;;
54823;SDS011;40724;53.196;5.980;2023-06-22T12:51:08;3.08;;;1.90;;
54823;SDS011;40724;53.196;5.980;2023-06-22T12:53:34;3.95;;;2.10;;
54823;SDS011;40724;53.196;5.980;2023-06-22T12:56:00;2.25;;;1.85;;
54823;SDS011;40724;53.196;5.980;2023-06-22T12:58:26;2.85;;;2.20;;
54823;SDS011;40724;53.196;5.980;2023-06-22T13:00:52;4.15;;;2.10;;
54823;SDS011;40724;53.196;5.980;2023-06-22T13:03:18;4.03;;;2.05;;
54823;SDS011;40724;53.196;5.980;2023-06-22T13:05:44;3.90;;;2.00;;
54823;SDS011;40724;53.196;5.980;2023-06-22T13:08:10;5.00;;;1.98;;
54823;SDS011;40724;53.196;5.980;2023-06-22T13:10:36;3.40;;;2.13;;
54823;SDS011;40724;53.196;5.980;2023-06-22T13:13:01;3.38;;;2.40;;
54823;SDS011;40724;53.196;5.980;2023-06-22T13:15:28;3.00;;;1.90;;
54823;SDS011;40724;53.196;5.980;2023-06-22T13:17:54;3.13;;;1.88;;
54823;SDS011;40724;53.196;5.980;2023-06-22T13:20:20;2.17;;;1.55;;
54823;SDS011;40724;53.196;5.980;2023-06-22T13:22:46;3.83;;;1.83;;
54823;SDS011;40724;53.196;5.980;2023-06-22T13:25:12;2.05;;;1.60;;
54823;SDS011;40724;53.196;5.980;2023-06-22T13:27:39;2.20;;;1.70;;
54823;SDS011;40724;53.196;5.980;2023-06-22T13:30:05;3.97;;;1.92;;
54823;SDS011;40724;53.196;5.980;2023-06-22T13:32:32;5.47;;;1.52;;
54823;SDS011;40724;53.196;5.980;2023-06-22T13:34:57;2.50;;;1.63;;
54823;SDS011;40724;53.196;5.980;2023-06-22T13:37:23;3.30;;;1.77;;
54823;SDS011;40724;53.196;5.980;2023-06-22T13:39:50;2.63;;;1.70;;
54823;SDS011;40724;53.196;5.980;2023-06-22T13:42:16;4.32;;;1.95;;
54823;SDS011;40724;53.196;5.980;2023-06-22T13:44:42;4.32;;;1.60;;
54823;SDS011;40724;53.196;5.980;2023-06-22T13:47:08;4.95;;;1.80;;
54823;SDS011;40724;53.196;5.980;2023-06-22T13:49:33;3.80;;;1.40;;
54823;SDS011;40724;53.196;5.980;2023-06-22T13:51:59;5.00;;;2.00;;
54823;SDS011;40724;53.196;5.980;2023-06-22T13:54:25;2.45;;;1.48;;
54823;SDS011;40724;53.196;5.980;2023-06-22T13:56:51;2.83;;;1.70;;
54823;SDS011;40724;53.196;5.980;2023-06-22T13:59:17;2.85;;;1.45;;
54823;SDS011;40724;53.196;5.980;2023-06-22T14:01:43;2.83;;;1.10;;
54823;SDS011;40724;53.196;5.980;2023-06-22T14:04:09;3.30;;;1.40;;
54823;SDS011;40724;53.196;5.980;2023-06-22T14:06:35;3.28;;;1.75;;
54823;SDS011;40724;53.196;5.980;2023-06-22T14:09:01;3.05;;;1.45;;
54823;SDS011;40724;53.196;5.980;2023-06-22T14:11:27;6.07;;;1.92;;
54823;SDS011;40724;53.196;5.980;2023-06-22T14:13:53;5.97;;;1.73;;
54823;SDS011;40724;53.196;5.980;2023-06-22T14:16:19;2.97;;;1.65;;
54823;SDS011;40724;53.196;5.980;2023-06-22T14:18:45;2.13;;;1.27;;
54823;SDS011;40724;53.196;5.980;2023-06-22T14:21:11;4.32;;;1.77;;
54823;SDS011;40724;53.196;5.980;2023-06-22T14:23:37;7.00;;;1.88;;
54823;SDS011;40724;53.196;5.980;2023-06-22T14:26:03;3.42;;;1.50;;
54823;SDS011;40724;53.196;5.980;2023-06-22T14:28:29;5.78;;;1.75;;
54823;SDS011;40724;53.196;5.980;2023-06-22T14:30:55;2.97;;;1.42;;
54823;SDS011;40724;53.196;5.980;2023-06-22T14:33:21;2.67;;;1.40;;
54823;SDS011;40724;53.196;5.980;2023-06-22T14:35:48;2.28;;;1.27;;
54823;SDS011;40724;53.196;5.980;2023-06-22T14:38:14;2.58;;;1.25;;
54823;SDS011;40724;53.196;5.980;2023-06-22T14:40:40;1.83;;;1.20;;
54823;SDS011;40724;53.196;5.980;2023-06-22T14:43:06;2.10;;;1.15;;
54823;SDS011;40724;53.196;5.980;2023-06-22T14:45:32;2.35;;;1.30;;